CheckWX is a tool to help pilots better visualize weather data.  It is not intended as a substitute for an official pre-flight weather briefing.

03:28:52 UTC

PAED METAR
Elmendorf AFB Airport
Anchorage, Alaska, USA
Current

33 mins ago

PAED 220256Z 25003KT 1SM -SN BR OVC013 M09/M11 A2949 RMK AO2A SLP985 P0000 60000 T10921106 52003 RVRNO
Observed
Jan-22 @ 02:56 UTC
Wind
  • 250° at 3 KTS
Visibility
1 SM
Flight Rules
IFR
Conditions
Light Snow, Mist
Cloud Levels
  • Overcast at 1,300' AGL
Temperature
-9°C / 16°F
Dewpoint
-11°C / 12°F
Humidity
86%
Altimeter
29.49" Hg
Pressure
998.62 hPa
Current Rain
0.01"
Previous

41 mins ago

PAED 220248Z 24004KT 1 1/4SM -SN BR OVC014 M09/M10 A2949 RMK AO2A CIG 013 RWY24 SLP985
Observed
Jan-22 @ 02:48 UTC
Wind
  • 240° at 4 KTS
Visibility
1 1/4 SM
Flight Rules
IFR
Conditions
Light Snow, Mist
Cloud Levels
  • Overcast at 1,400' AGL
Temperature
-9°C / 16°F
Dewpoint
-10°C / 14°F
Humidity
93%
Altimeter
29.49" Hg
Pressure
998.62 hPa
Previous

1 hour ago

PAED 220221Z 00000KT 1 5/8SM -SN BR OVC018 M09/M10 A2948
Observed
Jan-22 @ 02:21 UTC
Visibility
1.63 SM
Flight Rules
IFR
Conditions
Light Snow, Mist
Cloud Levels
  • Overcast at 1,800' AGL
Temperature
-9°C / 16°F
Dewpoint
-10°C / 14°F
Humidity
93%
Altimeter
29.48" Hg
Pressure
998.32 hPa